createdAt,value
2018-07-17T00:01:53.482Z,17.46
2018-07-17T00:04:22.513Z,17.45
2018-07-17T00:06:51.403Z,17.41
2018-07-17T00:09:20.491Z,17.58
2018-07-17T00:11:50.016Z,17.62
2018-07-17T00:14:20.207Z,17.41
2018-07-17T00:16:49.664Z,17.37
2018-07-17T00:19:18.741Z,17.35
2018-07-17T00:21:49.497Z,17.61
2018-07-17T00:24:20.472Z,17.50
2018-07-17T00:26:49.984Z,17.24
2018-07-17T00:29:19.065Z,17.12
2018-07-17T00:31:47.889Z,17.10
2018-07-17T00:34:16.424Z,17.05
2018-07-17T00:36:45.910Z,16.92
2018-07-17T00:39:14.445Z,16.92
2018-07-17T00:41:44.785Z,17.13
2018-07-17T00:44:13.328Z,17.04
2018-07-17T00:46:42.389Z,17.04
2018-07-17T00:49:11.584Z,16.98
2018-07-17T00:51:40.278Z,16.71
2018-07-17T00:54:08.841Z,16.87
2018-07-17T00:56:37.372Z,16.77
2018-07-17T00:59:05.944Z,16.74
2018-07-17T01:01:39.837Z,16.49
2018-07-17T01:04:13.505Z,16.77
2018-07-17T01:06:47.284Z,16.60
2018-07-17T01:09:21.369Z,17.01
2018-07-17T01:11:55.302Z,16.75
2018-07-17T01:14:31.609Z,16.60
2018-07-17T01:17:00.190Z,16.51
2018-07-17T01:19:28.753Z,16.70
2018-07-17T01:21:58.319Z,16.62
2018-07-17T01:24:26.864Z,16.47
2018-07-17T01:26:55.438Z,16.58
2018-07-17T01:29:24.013Z,16.65
2018-07-17T01:31:52.600Z,16.70
2018-07-17T01:34:21.164Z,16.83
2018-07-17T01:36:50.312Z,16.72
2018-07-17T01:39:19.185Z,16.79
2018-07-17T01:41:47.761Z,16.72
2018-07-17T01:44:17.346Z,16.58
2018-07-17T01:46:47.243Z,16.30
2018-07-17T01:49:16.249Z,16.41
2018-07-17T01:51:44.837Z,16.54
2018-07-17T01:54:13.433Z,16.47
2018-07-17T01:56:42.017Z,16.49
2018-07-17T01:59:10.560Z,16.54
2018-07-17T02:01:39.576Z,16.52
2018-07-17T02:04:08.463Z,16.41
2018-07-17T02:06:37.224Z,16.54
2018-07-17T02:09:06.784Z,16.48
2018-07-17T02:11:35.602Z,16.48
2018-07-17T02:14:04.253Z,16.22
2018-07-17T02:16:32.937Z,16.37
2018-07-17T02:19:01.757Z,16.35
2018-07-17T02:21:30.332Z,16.42
2018-07-17T02:23:58.880Z,16.44
2018-07-17T02:26:27.473Z,16.48
2018-07-17T02:28:56.471Z,16.42
2018-07-17T02:31:25.059Z,16.24
2018-07-17T02:33:53.764Z,16.28
2018-07-17T02:36:22.684Z,16.17
2018-07-17T02:38:51.296Z,16.37
2018-07-17T02:41:20.514Z,16.36
2018-07-17T02:43:49.305Z,16.08
2018-07-17T02:46:18.313Z,16.35
2018-07-17T02:48:47.476Z,16.42
2018-07-17T02:51:16.013Z,16.22
2018-07-17T02:53:44.608Z,16.14
2018-07-17T02:56:13.169Z,15.91
2018-07-17T02:58:41.741Z,15.97
2018-07-17T03:01:10.302Z,15.82
2018-07-17T03:03:38.886Z,15.83
2018-07-17T03:06:07.457Z,15.87
2018-07-17T03:08:36.085Z,15.66
2018-07-17T03:11:04.633Z,15.77
2018-07-17T03:13:33.223Z,15.67
2018-07-17T03:16:01.824Z,15.87
2018-07-17T03:18:30.804Z,15.92
2018-07-17T03:20:59.357Z,16.02
2018-07-17T03:23:27.934Z,15.92
2018-07-17T03:25:56.492Z,15.75
2018-07-17T03:28:25.208Z,15.75
2018-07-17T03:30:53.785Z,15.73
2018-07-17T03:33:22.391Z,15.71
2018-07-17T03:35:50.988Z,15.54
2018-07-17T03:38:19.625Z,15.62
2018-07-17T03:40:48.216Z,15.65
2018-07-17T03:43:17.570Z,15.81
2018-07-17T03:45:46.193Z,15.69
2018-07-17T03:48:14.797Z,15.66
2018-07-17T03:50:43.365Z,15.45
2018-07-17T03:53:12.061Z,15.66
2018-07-17T03:55:40.627Z,15.67
2018-07-17T03:58:09.192Z,15.70
2018-07-17T04:00:37.940Z,15.53
2018-07-17T04:03:06.537Z,15.26
2018-07-17T04:05:35.075Z,15.47
2018-07-17T04:08:03.636Z,15.61
2018-07-17T04:10:32.180Z,15.50
2018-07-17T04:13:00.751Z,15.48
2018-07-17T04:15:29.286Z,15.63
2018-07-17T04:17:57.820Z,15.76
2018-07-17T04:20:26.385Z,15.53
2018-07-17T04:22:55.069Z,15.47
2018-07-17T04:25:23.643Z,15.42
2018-07-17T04:27:52.156Z,15.58
2018-07-17T04:30:20.981Z,15.71
2018-07-17T04:32:49.513Z,15.84
2018-07-17T04:35:22.154Z,16.02
2018-07-17T04:37:50.926Z,15.60
2018-07-17T04:40:19.501Z,15.54
2018-07-17T04:42:48.041Z,15.74
2018-07-17T04:45:18.332Z,15.83
2018-07-17T04:47:46.852Z,16.03
2018-07-17T04:50:15.444Z,15.97
2018-07-17T04:52:43.989Z,16.19
2018-07-17T04:55:12.646Z,16.25
2018-07-17T04:57:41.173Z,16.20
2018-07-17T05:00:09.756Z,16.25
2018-07-17T05:02:38.300Z,16.37
2018-07-17T05:05:06.952Z,16.71
2018-07-17T05:07:35.476Z,16.82
2018-07-17T05:10:04.138Z,16.87
2018-07-17T05:12:32.784Z,17.11
2018-07-17T05:15:01.357Z,17.03
2018-07-17T05:17:29.900Z,17.20
2018-07-17T05:19:58.475Z,17.32
2018-07-17T05:22:27.024Z,17.33
2018-07-17T05:24:55.593Z,17.41
2018-07-17T05:27:24.772Z,17.42
2018-07-17T05:29:53.377Z,17.51
2018-07-17T05:32:22.301Z,17.63
2018-07-17T05:34:50.940Z,17.69
2018-07-17T05:37:19.545Z,17.78
2018-07-17T05:39:48.127Z,17.71
2018-07-17T05:42:16.696Z,17.67
2018-07-17T05:44:45.326Z,17.59
2018-07-17T05:47:13.884Z,17.76
2018-07-17T05:49:42.472Z,17.70
2018-07-17T05:52:11.116Z,17.68
2018-07-17T05:54:39.726Z,17.67
2018-07-17T05:57:08.404Z,17.66
2018-07-17T05:59:36.992Z,17.68
2018-07-17T06:02:05.641Z,17.56
2018-07-17T06:04:34.249Z,17.83
2018-07-17T06:07:02.837Z,17.97
2018-07-17T06:09:31.445Z,18.08
2018-07-17T06:12:00.011Z,18.13
2018-07-17T06:14:28.926Z,18.16
2018-07-17T06:16:57.493Z,18.15
2018-07-17T06:19:26.053Z,18.27
2018-07-17T06:21:54.667Z,18.24
2018-07-17T06:24:23.215Z,18.25
2018-07-17T06:26:52.777Z,18.46
2018-07-17T06:29:21.401Z,18.41
2018-07-17T06:31:49.993Z,18.68
2018-07-17T06:34:18.550Z,18.55
2018-07-17T06:36:47.160Z,18.56
2018-07-17T06:39:15.692Z,18.82
2018-07-17T06:41:44.306Z,18.94
2018-07-17T06:44:13.041Z,19.06
2018-07-17T06:46:41.642Z,19.14
2018-07-17T06:49:10.204Z,19.34
2018-07-17T06:51:38.833Z,19.45
2018-07-17T06:54:07.396Z,19.56
2018-07-17T06:56:35.997Z,19.51
2018-07-17T06:59:04.555Z,19.75
2018-07-17T07:01:33.188Z,19.86
2018-07-17T07:04:02.873Z,19.91
2018-07-17T07:06:31.528Z,19.83
2018-07-17T07:09:00.077Z,19.86
2018-07-17T07:11:28.661Z,19.81
2018-07-17T07:13:57.232Z,19.85
2018-07-17T07:16:25.823Z,20.08
2018-07-17T07:18:54.806Z,20.46
2018-07-17T07:21:23.449Z,20.39
2018-07-17T07:23:52.918Z,20.45
2018-07-17T07:26:21.866Z,20.44
2018-07-17T07:28:50.432Z,20.80
2018-07-17T07:31:19.025Z,20.62
2018-07-17T07:33:47.585Z,20.81
2018-07-17T07:36:16.181Z,20.88
2018-07-17T07:38:44.707Z,21.01
2018-07-17T07:41:13.305Z,20.99
2018-07-17T07:43:41.867Z,21.22
2018-07-17T07:46:10.469Z,21.33
2018-07-17T07:48:39.045Z,21.34
2018-07-17T07:51:07.630Z,21.34
2018-07-17T07:53:36.193Z,21.41
2018-07-17T07:56:04.800Z,21.54
2018-07-17T07:58:33.335Z,21.68
2018-07-17T08:01:01.900Z,21.67
2018-07-17T08:03:30.489Z,21.73
2018-07-17T08:05:59.037Z,21.82
2018-07-17T08:08:27.596Z,21.88
2018-07-17T08:10:56.201Z,22.01
2018-07-17T08:13:24.742Z,22.10
2018-07-17T08:15:54.084Z,22.41
2018-07-17T08:18:22.653Z,22.55
2018-07-17T08:20:51.201Z,22.76
2018-07-17T08:23:19.856Z,22.84
2018-07-17T08:25:48.385Z,22.85
2018-07-17T08:28:16.972Z,22.99
2018-07-17T08:30:45.502Z,23.16
2018-07-17T08:33:14.080Z,23.02
2018-07-17T08:35:42.725Z,23.02
2018-07-17T08:38:11.594Z,23.08
2018-07-17T08:40:46.680Z,23.35
2018-07-17T08:43:15.421Z,23.44
2018-07-17T08:45:43.953Z,23.61
2018-07-17T08:48:12.546Z,23.57
2018-07-17T08:50:41.436Z,23.63
2018-07-17T08:53:10.021Z,23.83
2018-07-17T08:55:38.629Z,23.81
2018-07-17T08:58:07.211Z,24.00
2018-07-17T09:00:35.812Z,24.08
2018-07-17T09:03:05.214Z,24.02
2018-07-17T09:05:34.702Z,24.08
2018-07-17T09:08:03.441Z,24.04
2018-07-17T09:10:32.017Z,24.36
2018-07-17T09:13:00.627Z,24.68
2018-07-17T09:15:29.183Z,24.54
2018-07-17T09:18:04.678Z,24.97
2018-07-17T09:20:37.183Z,24.81
2018-07-17T09:23:07.041Z,25.12
2018-07-17T09:25:36.861Z,25.24
2018-07-17T09:28:07.324Z,25.24
2018-07-17T09:30:45.212Z,25.39
2018-07-17T09:33:16.078Z,25.06
2018-07-17T09:35:45.268Z,25.50
2018-07-17T09:38:19.973Z,25.72
2018-07-17T09:40:55.031Z,25.47
2018-07-17T09:43:24.505Z,25.36
2018-07-17T09:45:55.351Z,25.58
2018-07-17T09:48:25.636Z,25.45
2018-07-17T09:50:54.896Z,25.59
2018-07-17T09:53:24.546Z,25.93
2018-07-17T09:55:53.081Z,25.93
2018-07-17T09:58:22.682Z,25.81
2018-07-17T10:00:56.562Z,26.21
2018-07-17T10:03:25.168Z,26.03
2018-07-17T10:05:54.505Z,26.13
2018-07-17T10:08:23.158Z,26.13
2018-07-17T10:11:03.003Z,26.50
2018-07-17T10:13:35.157Z,26.24
2018-07-17T10:16:07.207Z,26.46
2018-07-17T10:18:36.582Z,26.51
2018-07-17T10:21:06.341Z,26.41
2018-07-17T10:23:35.450Z,26.46
2018-07-17T10:26:05.684Z,26.56
2018-07-17T10:28:37.639Z,26.80
2018-07-17T10:31:06.168Z,27.01
2018-07-17T10:33:41.193Z,26.81
2018-07-17T10:36:10.759Z,27.21
2018-07-17T10:38:40.953Z,26.94
2018-07-17T10:41:10.383Z,27.32
2018-07-17T10:43:40.850Z,27.34
2018-07-17T10:46:12.361Z,27.31
2018-07-17T10:48:46.052Z,27.23
2018-07-17T10:51:16.348Z,27.54
2018-07-17T10:53:49.129Z,27.48
2018-07-17T10:56:21.891Z,27.41
2018-07-17T10:58:51.189Z,27.52
2018-07-17T11:01:21.569Z,27.98
2018-07-17T11:03:58.397Z,28.07
2018-07-17T11:06:30.758Z,27.87
2018-07-17T11:09:03.003Z,27.79
2018-07-17T11:11:34.079Z,27.58
2018-07-17T11:14:11.373Z,27.75
2018-07-17T11:16:43.587Z,27.87
2018-07-17T11:19:14.626Z,27.95
2018-07-17T11:21:46.261Z,27.99
2018-07-17T11:24:15.776Z,28.05
2018-07-17T11:26:46.440Z,27.99
2018-07-17T11:29:17.508Z,28.38
2018-07-17T11:31:47.629Z,28.29
2018-07-17T11:34:16.297Z,28.31
2018-07-17T11:36:50.464Z,28.67
2018-07-17T11:39:24.047Z,28.46
2018-07-17T11:41:56.741Z,28.43
2018-07-17T11:44:26.887Z,28.47
2018-07-17T11:46:57.694Z,28.57
2018-07-17T11:49:27.942Z,28.32
2018-07-17T11:51:58.166Z,28.11
2018-07-17T11:54:26.884Z,28.02
2018-07-17T11:56:55.436Z,27.57
2018-07-17T11:59:24.166Z,27.52
2018-07-17T12:01:52.620Z,26.97
2018-07-17T12:04:21.266Z,26.67
2018-07-17T12:06:49.819Z,26.81
2018-07-17T12:09:18.854Z,26.64
2018-07-17T12:11:47.721Z,26.74
2018-07-17T12:14:18.364Z,26.91
2018-07-17T12:16:46.913Z,27.00
2018-07-17T12:19:15.508Z,27.14
2018-07-17T12:21:45.801Z,27.22
2018-07-17T12:24:15.908Z,27.22
2018-07-17T12:26:44.628Z,27.12
2018-07-17T12:29:14.047Z,27.24
2018-07-17T12:31:42.828Z,27.43
2018-07-17T12:34:11.379Z,27.25
2018-07-17T12:36:40.370Z,27.62
2018-07-17T12:39:11.852Z,27.84
2018-07-17T12:41:42.984Z,28.01
2018-07-17T12:44:13.308Z,27.89
2018-07-17T12:46:42.034Z,27.52
2018-07-17T12:49:10.574Z,27.45
2018-07-17T12:51:39.138Z,27.43
2018-07-17T12:54:09.446Z,27.39
2018-07-17T12:56:38.088Z,27.33
2018-07-17T12:59:06.668Z,27.40
2018-07-17T13:01:35.287Z,27.55
2018-07-17T13:04:03.805Z,27.57
2018-07-17T13:06:32.709Z,27.56
2018-07-17T13:09:01.252Z,27.53
2018-07-17T13:11:30.082Z,28.01
2018-07-17T13:13:58.611Z,27.98
2018-07-17T13:16:27.205Z,27.97
2018-07-17T13:18:57.893Z,28.05
2018-07-17T13:21:26.480Z,28.10
2018-07-17T13:23:55.141Z,28.02
2018-07-17T13:26:23.765Z,28.00
2018-07-17T13:28:52.511Z,28.44
2018-07-17T13:31:21.085Z,28.37
2018-07-17T13:33:53.005Z,28.14
2018-07-17T13:36:21.640Z,27.94
2018-07-17T13:38:51.217Z,28.11
2018-07-17T13:41:19.838Z,28.68
2018-07-17T13:43:48.456Z,28.81
2018-07-17T13:46:17.974Z,29.15
2018-07-17T13:48:46.578Z,29.10
2018-07-17T13:51:15.142Z,28.94
2018-07-17T13:53:44.181Z,28.28
2018-07-17T13:56:12.781Z,27.99
2018-07-17T13:58:41.337Z,27.82
2018-07-17T14:01:09.896Z,27.94
2018-07-17T14:03:38.462Z,28.39
2018-07-17T14:06:07.052Z,28.56
2018-07-17T14:08:35.825Z,28.29
2018-07-17T14:11:04.384Z,27.98
2018-07-17T14:13:33.268Z,27.94
2018-07-17T14:16:01.829Z,27.94
2018-07-17T14:18:31.303Z,27.88
2018-07-17T14:20:59.907Z,28.27
2018-07-17T14:23:28.432Z,28.35
2018-07-17T14:25:57.100Z,28.19
2018-07-17T14:28:25.680Z,28.14
2018-07-17T14:30:54.249Z,28.56
2018-07-17T14:33:24.454Z,28.64
2018-07-17T14:35:55.137Z,29.05
2018-07-17T14:38:23.724Z,29.23
2018-07-17T14:40:52.307Z,28.96
2018-07-17T14:43:21.192Z,28.61
2018-07-17T14:45:50.848Z,28.68
2018-07-17T14:48:19.453Z,28.87
2018-07-17T14:50:48.056Z,29.08
2018-07-17T14:53:16.927Z,29.19
2018-07-17T14:55:45.480Z,29.15
2018-07-17T14:58:14.066Z,29.02
2018-07-17T15:00:42.650Z,28.67
2018-07-17T15:03:11.233Z,28.51
2018-07-17T15:05:39.776Z,28.47
2018-07-17T15:08:08.357Z,28.45
2018-07-17T15:10:37.058Z,28.37
2018-07-17T15:13:05.652Z,28.78
2018-07-17T15:15:34.212Z,29.11
2018-07-17T15:18:02.818Z,28.88
2018-07-17T15:20:32.251Z,28.62
2018-07-17T15:23:00.822Z,28.51
2018-07-17T15:25:29.366Z,28.57
2018-07-17T15:27:58.047Z,28.62
2018-07-17T15:30:26.659Z,28.94
2018-07-17T15:32:55.231Z,28.92
2018-07-17T15:35:24.309Z,28.58
2018-07-17T15:37:52.896Z,28.48
2018-07-17T15:40:22.265Z,28.13
2018-07-17T15:42:51.001Z,28.19
2018-07-17T15:45:19.828Z,27.75
2018-07-17T15:47:49.366Z,28.18
2018-07-17T15:50:18.034Z,28.49
2018-07-17T15:52:47.440Z,28.83
2018-07-17T15:55:16.104Z,29.33
2018-07-17T15:57:44.700Z,29.27
2018-07-17T16:00:13.608Z,28.87
2018-07-17T16:02:47.980Z,29.43
2018-07-17T16:05:20.549Z,29.52
2018-07-17T16:07:49.216Z,29.49
2018-07-17T16:10:17.820Z,29.66
2018-07-17T16:12:47.793Z,29.73
2018-07-17T16:15:17.859Z,30.01
2018-07-17T16:17:47.285Z,29.74
2018-07-17T16:20:16.527Z,29.97
2018-07-17T16:22:49.490Z,29.84
2018-07-17T16:25:18.127Z,29.46
2018-07-17T16:27:46.728Z,29.20
2018-07-17T16:30:15.292Z,29.15
2018-07-17T16:32:43.892Z,29.29
2018-07-17T16:35:12.452Z,29.72
2018-07-17T16:37:47.705Z,29.65
2018-07-17T16:40:16.240Z,29.75
2018-07-17T16:42:44.826Z,29.88
2018-07-17T16:45:13.377Z,30.01
2018-07-17T16:47:41.929Z,29.66
2018-07-17T16:50:10.514Z,29.77
2018-07-17T16:52:39.077Z,29.89
2018-07-17T16:55:07.649Z,30.35
2018-07-17T16:57:36.201Z,32.29
2018-07-17T17:00:05.160Z,34.98
2018-07-17T17:02:33.696Z,35.93
2018-07-17T17:05:02.550Z,36.63
2018-07-17T17:07:31.089Z,36.45
2018-07-17T17:09:59.660Z,36.56
2018-07-17T17:12:28.177Z,35.22
2018-07-17T17:14:56.789Z,35.36
2018-07-17T17:17:25.315Z,35.04
2018-07-17T17:19:54.164Z,37.47
2018-07-17T17:22:23.012Z,38.24
2018-07-17T17:24:51.630Z,37.22
2018-07-17T17:27:20.160Z,36.83
2018-07-17T17:29:48.721Z,37.18
2018-07-17T17:32:17.265Z,36.47
2018-07-17T17:34:45.864Z,36.59
2018-07-17T17:37:14.478Z,36.11
2018-07-17T17:39:46.636Z,35.19
2018-07-17T17:42:16.669Z,35.67
2018-07-17T17:44:45.324Z,35.23
2018-07-17T17:47:15.916Z,34.44
2018-07-17T17:49:44.493Z,34.89
2018-07-17T17:52:13.049Z,35.26
2018-07-17T17:54:42.032Z,33.95
2018-07-17T17:57:10.638Z,34.39
2018-07-17T17:59:39.211Z,33.10
2018-07-17T18:02:07.774Z,33.11
2018-07-17T18:04:36.353Z,33.49
2018-07-17T18:07:04.945Z,34.63
2018-07-17T18:09:33.516Z,32.10
2018-07-17T18:12:02.084Z,29.80
2018-07-17T18:14:31.215Z,30.93
2018-07-17T18:17:00.609Z,30.37
2018-07-17T18:19:29.197Z,29.81
2018-07-17T18:21:59.952Z,29.64
2018-07-17T18:24:46.329Z,30.37
2018-07-17T18:27:25.910Z,30.17
2018-07-17T18:30:12.823Z,29.70
2018-07-17T18:32:41.916Z,29.44
2018-07-17T18:35:10.528Z,29.35
2018-07-17T18:37:39.081Z,29.28
2018-07-17T18:40:07.673Z,28.94
2018-07-17T18:42:37.263Z,28.71
2018-07-17T18:45:05.828Z,28.14
2018-07-17T18:47:35.212Z,27.90
2018-07-17T18:50:12.589Z,27.75
2018-07-17T18:52:32.565Z,27.33
2018-07-17T18:55:01.893Z,27.21
2018-07-17T18:57:30.647Z,26.78
2018-07-17T18:59:59.296Z,26.85
2018-07-17T19:02:28.207Z,26.64
2018-07-17T19:04:57.627Z,26.39
2018-07-17T19:07:26.177Z,26.39
2018-07-17T19:09:56.493Z,26.14
2018-07-17T19:12:32.162Z,26.03
2018-07-17T19:15:03.929Z,26.09
2018-07-17T19:17:36.059Z,25.74
2018-07-17T19:20:05.769Z,25.20
2018-07-17T19:22:36.733Z,25.13
2018-07-17T19:25:05.345Z,25.27
2018-07-17T19:27:34.462Z,25.16
2018-07-17T19:30:18.528Z,24.89
2018-07-17T19:32:56.839Z,25.00
2018-07-17T19:35:36.664Z,24.93
2018-07-17T19:38:14.607Z,24.68
2018-07-17T19:40:56.749Z,24.68
2018-07-17T19:43:34.995Z,24.75
2018-07-17T19:46:03.805Z,24.62
2018-07-17T19:48:32.349Z,24.34
2018-07-17T19:51:01.988Z,24.43
2018-07-17T19:53:30.541Z,24.44
2018-07-17T19:55:59.124Z,24.30
2018-07-17T19:58:27.677Z,24.28
2018-07-17T20:00:56.288Z,24.08
2018-07-17T20:03:25.437Z,23.97
2018-07-17T20:05:54.016Z,23.87
2018-07-17T20:08:22.608Z,23.89
2018-07-17T20:10:51.371Z,23.75
2018-07-17T20:13:19.920Z,23.74
2018-07-17T20:15:48.941Z,23.71
2018-07-17T20:18:17.545Z,23.55
2018-07-17T20:20:46.133Z,23.49
2018-07-17T20:23:14.693Z,23.45
2018-07-17T20:25:43.289Z,23.46
2018-07-17T20:28:12.877Z,23.08
2018-07-17T20:30:41.469Z,22.91
2018-07-17T20:33:10.056Z,22.79
2018-07-17T20:35:38.628Z,22.69
2018-07-17T20:38:09.673Z,22.61
2018-07-17T20:40:38.237Z,22.62
2018-07-17T20:43:07.513Z,22.57
2018-07-17T20:45:36.341Z,22.56
2018-07-17T20:48:05.822Z,22.51
2018-07-17T20:50:36.063Z,22.56
2018-07-17T20:53:06.487Z,22.43
2018-07-17T20:55:39.043Z,22.44
2018-07-17T20:58:10.545Z,22.27
2018-07-17T21:00:39.872Z,22.20
2018-07-17T21:03:08.980Z,22.28
2018-07-17T21:05:37.717Z,22.11
2018-07-17T21:08:07.790Z,22.09
2018-07-17T21:10:37.832Z,22.23
2018-07-17T21:13:07.783Z,21.91
2018-07-17T21:15:37.676Z,21.64
2018-07-17T21:18:06.295Z,21.97
2018-07-17T21:20:40.818Z,22.02
2018-07-17T21:23:09.589Z,22.05
2018-07-17T21:25:38.132Z,22.06
2018-07-17T21:28:07.511Z,21.98
2018-07-17T21:30:36.064Z,21.91
2018-07-17T21:33:04.941Z,21.87
2018-07-17T21:35:33.517Z,22.01
2018-07-17T21:38:02.141Z,21.94
2018-07-17T21:40:30.701Z,21.65
2018-07-17T21:42:59.273Z,21.70
2018-07-17T21:45:27.900Z,21.56
2018-07-17T21:47:56.510Z,21.49
2018-07-17T21:50:25.056Z,21.59
2018-07-17T21:52:55.918Z,21.50
2018-07-17T21:55:24.596Z,21.37
2018-07-17T21:57:53.254Z,21.51
2018-07-17T22:00:21.841Z,21.33
2018-07-17T22:02:50.433Z,21.37
2018-07-17T22:05:19.012Z,21.35
2018-07-17T22:07:47.588Z,21.28
2018-07-17T22:10:16.684Z,21.10
2018-07-17T22:12:46.707Z,21.06
2018-07-17T22:15:17.418Z,21.02
2018-07-17T22:17:48.352Z,20.85
2018-07-17T22:20:18.185Z,20.89
2018-07-17T22:22:50.796Z,21.08
2018-07-17T22:25:21.453Z,21.21
2018-07-17T22:27:52.443Z,21.19
2018-07-17T22:30:23.489Z,21.10
2018-07-17T22:32:53.542Z,20.98
2018-07-17T22:35:25.745Z,20.70
2018-07-17T22:37:57.807Z,20.74
2018-07-17T22:40:29.544Z,20.88
2018-07-17T22:43:04.465Z,20.91
2018-07-17T22:45:35.617Z,20.91
2018-07-17T22:48:05.452Z,20.71
2018-07-17T22:50:38.727Z,20.62
2018-07-17T22:53:08.149Z,20.58
2018-07-17T22:55:39.548Z,20.40
2018-07-17T22:58:20.117Z,20.23
2018-07-17T23:00:52.339Z,20.25
2018-07-17T23:03:27.647Z,20.11
2018-07-17T23:05:59.816Z,19.75
2018-07-17T23:08:30.922Z,19.87
2018-07-17T23:11:01.361Z,19.81
2018-07-17T23:13:31.548Z,19.62
2018-07-17T23:16:01.865Z,19.68
2018-07-17T23:18:33.757Z,19.61
2018-07-17T23:21:04.685Z,19.45
2018-07-17T23:23:40.561Z,19.55
2018-07-17T23:26:13.235Z,19.65
2018-07-17T23:28:46.547Z,19.65
2018-07-17T23:31:15.737Z,19.47
2018-07-17T23:33:48.179Z,19.52
2018-07-17T23:36:21.168Z,19.78
2018-07-17T23:38:52.846Z,19.72
2018-07-17T23:41:27.314Z,19.83
2018-07-17T23:43:58.193Z,19.46
2018-07-17T23:46:32.612Z,19.68
2018-07-17T23:49:05.929Z,19.58
2018-07-17T23:51:38.659Z,19.73
2018-07-17T23:54:11.030Z,19.34
2018-07-17T23:56:45.307Z,19.29
2018-07-17T23:59:16.276Z,19.10
